createdAt,value
2023-04-12T00:01:21.002Z,5.41
2023-04-12T00:03:54.364Z,5.36
2023-04-12T00:06:25.341Z,5.36
2023-04-12T00:08:51.816Z,5.38
2023-04-12T00:11:21.225Z,5.43
2023-04-12T00:13:47.704Z,5.31
2023-04-12T00:16:15.855Z,5.24
2023-04-12T00:18:42.625Z,5.24
2023-04-12T00:21:10.358Z,5.26
2023-04-12T00:23:38.019Z,5.32
2023-04-12T00:26:05.029Z,5.31
2023-04-12T00:28:31.779Z,5.35
2023-04-12T00:30:58.758Z,5.46
2023-04-12T00:33:28.097Z,5.54
2023-04-12T00:35:54.552Z,5.61
2023-04-12T00:38:21.088Z,5.39
2023-04-12T00:40:50.868Z,5.28
2023-04-12T00:43:18.849Z,5.26
2023-04-12T00:45:47.352Z,5.22
2023-04-12T00:48:15.712Z,5.32
2023-04-12T00:50:44.658Z,5.36
2023-04-12T00:53:14.937Z,5.31
2023-04-12T00:55:44.443Z,5.19
2023-04-12T00:58:14.199Z,5.18
2023-04-12T01:00:44.137Z,5.16
2023-04-12T01:03:11.855Z,5.30
2023-04-12T01:05:50.810Z,5.31
2023-04-12T01:08:36.811Z,5.25
2023-04-12T01:11:07.141Z,5.29
2023-04-12T01:13:52.862Z,5.42
2023-04-12T01:16:31.024Z,5.39
2023-04-12T01:19:05.758Z,5.44
2023-04-12T01:22:07.834Z,5.46
2023-04-12T01:25:05.724Z,5.44
2023-04-12T01:27:40.604Z,5.43
2023-04-12T01:30:08.447Z,5.42
2023-04-12T01:32:38.282Z,5.40
2023-04-12T01:35:08.865Z,5.42
2023-04-12T01:37:36.693Z,5.51
2023-04-12T01:40:05.913Z,5.46
2023-04-12T01:42:32.792Z,5.35
2023-04-12T01:44:59.248Z,5.19
2023-04-12T01:47:27.007Z,5.16
2023-04-12T01:50:20.380Z,5.15
2023-04-12T01:52:57.500Z,5.17
2023-04-12T01:55:25.812Z,5.17
2023-04-12T01:57:53.459Z,5.28
2023-04-12T02:00:20.402Z,5.33
2023-04-12T02:02:47.151Z,5.37
2023-04-12T02:05:17.488Z,5.40
2023-04-12T02:07:45.854Z,5.43
2023-04-12T02:10:15.602Z,5.48
2023-04-12T02:12:42.442Z,5.54
2023-04-12T02:15:09.323Z,5.60
2023-04-12T02:17:39.034Z,5.66
2023-04-12T02:20:15.823Z,5.71
2023-04-12T02:22:48.570Z,5.76
2023-04-12T02:25:17.750Z,5.83
2023-04-12T02:27:46.195Z,5.88
2023-04-12T02:30:13.666Z,5.95
2023-04-12T02:32:46.294Z,5.98
2023-04-12T02:35:17.496Z,5.91
2023-04-12T02:37:46.744Z,5.91
2023-04-12T02:40:15.536Z,5.96
2023-04-12T02:42:43.121Z,6.02
2023-04-12T02:45:13.767Z,6.04
2023-04-12T02:47:41.679Z,6.10
2023-04-12T02:50:08.779Z,6.09
2023-04-12T02:52:35.204Z,6.10
2023-04-12T02:55:01.728Z,6.14
2023-04-12T02:57:28.183Z,6.15
2023-04-12T02:59:54.973Z,6.22
2023-04-12T03:02:22.929Z,6.23
2023-04-12T03:04:53.367Z,6.25
2023-04-12T03:07:21.237Z,6.27
2023-04-12T03:09:51.711Z,6.30
2023-04-12T03:12:18.254Z,6.31
2023-04-12T03:14:44.730Z,6.39
2023-04-12T03:17:11.589Z,6.43
2023-04-12T03:19:38.114Z,6.43
2023-04-12T03:22:05.070Z,6.43
2023-04-12T03:24:34.207Z,6.43
2023-04-12T03:27:05.439Z,6.46
2023-04-12T03:29:31.948Z,6.46
2023-04-12T03:31:59.561Z,6.45
2023-04-12T03:34:32.506Z,6.47
2023-04-12T03:37:02.228Z,6.45
2023-04-12T03:39:29.086Z,6.42
2023-04-12T03:41:55.714Z,6.38
2023-04-12T03:44:22.551Z,6.38
2023-04-12T03:46:49.399Z,6.43
2023-04-12T03:49:18.892Z,6.40
2023-04-12T03:51:45.459Z,6.42
2023-04-12T03:54:13.212Z,6.36
2023-04-12T03:56:40.028Z,6.29
2023-04-12T03:59:09.832Z,6.25
2023-04-12T04:01:36.464Z,6.14
2023-04-12T04:04:04.337Z,6.06
2023-04-12T04:06:31.166Z,5.96
2023-04-12T04:08:58.059Z,6.06
2023-04-12T04:11:25.556Z,6.11
2023-04-12T04:13:52.103Z,6.07
2023-04-12T04:16:19.161Z,5.92
2023-04-12T04:18:45.969Z,5.93
2023-04-12T04:21:14.228Z,6.04
2023-04-12T04:23:44.969Z,6.01
2023-04-12T04:26:11.967Z,5.95
2023-04-12T04:28:39.782Z,5.87
2023-04-12T04:31:10.690Z,5.84
2023-04-12T04:33:39.011Z,5.88
2023-04-12T04:36:09.768Z,5.95
2023-04-12T04:38:36.467Z,6.08
2023-04-12T04:41:03.471Z,5.97
2023-04-12T04:43:31.126Z,5.94
2023-04-12T04:45:57.963Z,6.04
2023-04-12T04:48:24.784Z,6.01
2023-04-12T04:50:54.316Z,6.01
2023-04-12T04:53:22.551Z,5.87
2023-04-12T04:55:49.350Z,5.96
2023-04-12T04:58:16.686Z,5.98
2023-04-12T05:00:46.058Z,6.00
2023-04-12T05:03:13.001Z,5.96
2023-04-12T05:05:40.108Z,5.85
2023-04-12T05:08:06.572Z,5.95
2023-04-12T05:10:33.079Z,6.10
2023-04-12T05:12:59.586Z,6.18
2023-04-12T05:15:26.043Z,6.05
2023-04-12T05:17:52.574Z,6.17
2023-04-12T05:20:19.213Z,6.15
2023-04-12T05:22:45.676Z,6.22
2023-04-12T05:25:12.675Z,6.35
2023-04-12T05:27:39.116Z,6.40
2023-04-12T05:30:06.377Z,6.40
2023-04-12T05:32:32.953Z,6.43
2023-04-12T05:34:59.459Z,6.49
2023-04-12T05:37:27.934Z,6.45
2023-04-12T05:39:54.476Z,6.41
2023-04-12T05:42:21.179Z,6.41
2023-04-12T05:44:49.881Z,6.47
2023-04-12T05:47:16.844Z,6.88
2023-04-12T05:49:43.531Z,7.11
2023-04-12T05:52:10.018Z,7.33
2023-04-12T05:54:36.568Z,7.53
2023-04-12T05:57:03.311Z,7.56
2023-04-12T05:59:30.236Z,7.54
2023-04-12T06:01:56.944Z,7.65
2023-04-12T06:04:25.153Z,7.71
2023-04-12T06:06:56.418Z,7.71
2023-04-12T06:09:23.031Z,7.68
2023-04-12T06:11:53.233Z,7.71
2023-04-12T06:14:19.707Z,7.75
2023-04-12T06:16:46.142Z,7.80
2023-04-12T06:19:12.639Z,7.84
2023-04-12T06:21:39.155Z,7.82
2023-04-12T06:24:06.201Z,7.81
2023-04-12T06:26:39.431Z,7.81
2023-04-12T06:29:06.865Z,7.81
2023-04-12T06:31:33.392Z,7.86
2023-04-12T06:34:00.996Z,7.88
2023-04-12T06:36:27.451Z,7.96
2023-04-12T06:38:55.551Z,8.01
2023-04-12T06:41:22.178Z,8.04
2023-04-12T06:43:48.782Z,8.08
2023-04-12T06:46:15.936Z,8.12
2023-04-12T06:48:42.438Z,8.18
2023-04-12T06:51:08.911Z,8.25
2023-04-12T06:53:35.865Z,8.28
2023-04-12T06:56:06.321Z,8.35
2023-04-12T06:58:32.820Z,8.41
2023-04-12T07:01:10.142Z,8.53
2023-04-12T07:03:37.125Z,8.59
2023-04-12T07:06:17.247Z,8.71
2023-04-12T07:08:50.715Z,8.83
2023-04-12T07:11:21.297Z,8.93
2023-04-12T07:13:49.157Z,9.05
2023-04-12T07:16:15.948Z,9.10
2023-04-12T07:18:45.249Z,9.18
2023-04-12T07:21:14.446Z,9.22
2023-04-12T07:23:41.265Z,9.30
2023-04-12T07:26:07.877Z,9.36
2023-04-12T07:28:35.988Z,9.43
2023-04-12T07:31:06.365Z,9.42
2023-04-12T07:33:34.846Z,9.47
2023-04-12T07:36:04.888Z,9.49
2023-04-12T07:38:31.417Z,9.52
2023-04-12T07:40:58.105Z,9.54
2023-04-12T07:43:24.602Z,9.55
2023-04-12T07:45:51.900Z,9.57
2023-04-12T07:48:18.418Z,9.58
2023-04-12T07:50:44.978Z,9.61
2023-04-12T07:53:19.998Z,9.62
2023-04-12T07:55:47.392Z,9.64
2023-04-12T07:58:14.601Z,9.64
2023-04-12T08:00:41.329Z,9.63
2023-04-12T08:03:07.987Z,9.63
2023-04-12T08:05:35.096Z,9.70
2023-04-12T08:08:01.636Z,9.74
2023-04-12T08:10:29.009Z,9.76
2023-04-12T08:12:55.559Z,9.71
2023-04-12T08:15:26.935Z,9.75
2023-04-12T08:17:53.650Z,9.78
2023-04-12T08:20:20.233Z,9.83
2023-04-12T08:22:47.242Z,9.88
2023-04-12T08:25:16.505Z,9.85
2023-04-12T08:27:43.621Z,9.81
2023-04-12T08:30:11.554Z,9.78
2023-04-12T08:32:38.427Z,9.74
2023-04-12T08:35:05.739Z,9.70
2023-04-12T08:37:32.896Z,9.61
2023-04-12T08:40:06.577Z,9.60
2023-04-12T08:42:37.438Z,9.59
2023-04-12T08:45:08.465Z,9.54
2023-04-12T08:47:41.180Z,9.54
2023-04-12T08:50:09.518Z,9.51
2023-04-12T08:52:37.785Z,9.48
2023-04-12T08:55:09.383Z,9.48
2023-04-12T08:57:38.546Z,9.48
2023-04-12T09:00:08.379Z,9.47
2023-04-12T09:02:38.920Z,9.46
2023-04-12T09:05:06.717Z,9.40
2023-04-12T09:07:34.057Z,9.33
2023-04-12T09:10:00.754Z,9.30
2023-04-12T09:12:27.450Z,9.28
2023-04-12T09:15:07.768Z,9.25
2023-04-12T09:17:36.915Z,9.25
2023-04-12T09:20:04.545Z,9.23
2023-04-12T09:22:39.937Z,9.23
2023-04-12T09:25:07.431Z,9.21
2023-04-12T09:27:57.131Z,9.17
2023-04-12T09:30:23.673Z,9.15
2023-04-12T09:32:50.718Z,9.11
2023-04-12T09:35:17.417Z,9.07
2023-04-12T09:37:43.904Z,9.05
2023-04-12T09:40:11.148Z,9.00
2023-04-12T09:42:53.995Z,8.95
2023-04-12T09:45:21.896Z,8.89
2023-04-12T09:47:48.561Z,8.85
2023-04-12T09:50:26.504Z,8.82
2023-04-12T09:52:53.729Z,8.76
2023-04-12T09:55:22.519Z,8.74
2023-04-12T09:57:51.797Z,8.73
2023-04-12T10:00:19.994Z,8.71
2023-04-12T10:02:52.734Z,8.69
2023-04-12T10:05:26.239Z,8.72
2023-04-12T10:07:53.388Z,8.72
2023-04-12T10:10:20.600Z,8.67
2023-04-12T10:12:48.353Z,8.70
2023-04-12T10:15:21.411Z,8.71
2023-04-12T10:17:51.586Z,8.72
2023-04-12T10:20:19.600Z,8.75
2023-04-12T10:22:51.519Z,8.73
2023-04-12T10:25:21.567Z,8.72
2023-04-12T10:27:48.638Z,8.73
2023-04-12T10:30:29.395Z,8.70
2023-04-12T10:33:05.532Z,8.67
2023-04-12T10:35:55.453Z,8.68
2023-04-12T10:38:26.524Z,8.67
2023-04-12T10:41:15.802Z,8.66
2023-04-12T10:43:44.072Z,8.69
2023-04-12T10:46:35.241Z,8.72
2023-04-12T10:49:09.417Z,8.74
2023-04-12T10:51:36.300Z,8.76
2023-04-12T10:54:12.301Z,8.81
2023-04-12T10:56:47.461Z,8.82
2023-04-12T10:59:14.810Z,8.80
2023-04-12T11:01:43.068Z,8.79
2023-04-12T11:04:20.975Z,8.75
2023-04-12T11:06:55.361Z,8.72
2023-04-12T11:09:22.238Z,8.68
2023-04-12T11:11:57.322Z,8.66
2023-04-12T11:14:27.915Z,8.67
2023-04-12T11:17:06.746Z,8.67
2023-04-12T11:19:34.439Z,8.66
2023-04-12T11:22:04.993Z,8.68
2023-04-12T11:24:32.023Z,8.70
2023-04-12T11:26:59.760Z,8.71
2023-04-12T11:29:27.317Z,8.76
2023-04-12T11:31:55.082Z,8.81
2023-04-12T11:34:22.236Z,8.88
2023-04-12T11:36:53.475Z,8.94
2023-04-12T11:39:21.244Z,8.92
2023-04-12T11:41:48.889Z,8.86
2023-04-12T11:44:21.679Z,8.87
2023-04-12T11:46:48.971Z,8.84
2023-04-12T11:49:17.165Z,8.85
2023-04-12T11:51:45.481Z,8.81
2023-04-12T11:54:14.216Z,8.81
2023-04-12T11:56:41.865Z,8.83
2023-04-12T11:59:08.815Z,8.87
2023-04-12T12:01:35.981Z,8.97
2023-04-12T12:04:03.279Z,9.05
2023-04-12T12:06:33.916Z,9.12
2023-04-12T12:09:03.517Z,9.12
2023-04-12T12:11:30.264Z,9.20
2023-04-12T12:13:57.296Z,9.26
2023-04-12T12:16:29.183Z,9.24
2023-04-12T12:18:56.883Z,9.22
2023-04-12T12:21:23.468Z,9.21
2023-04-12T12:23:50.220Z,9.20
2023-04-12T12:26:25.182Z,9.20
2023-04-12T12:28:53.548Z,9.23
2023-04-12T12:31:22.516Z,9.27
2023-04-12T12:33:52.456Z,9.30
2023-04-12T12:36:21.034Z,9.42
2023-04-12T12:38:49.266Z,9.56
2023-04-12T12:41:23.851Z,9.72
2023-04-12T12:43:52.303Z,9.87
2023-04-12T12:46:20.167Z,10.00
2023-04-12T12:48:48.329Z,10.09
2023-04-12T12:51:17.815Z,10.10
2023-04-12T12:53:44.382Z,10.10
2023-04-12T12:56:12.620Z,10.04
2023-04-12T12:58:41.101Z,10.07
2023-04-12T13:01:11.282Z,10.05
2023-04-12T13:03:37.920Z,9.98
2023-04-12T13:06:05.182Z,9.96
2023-04-12T13:08:35.265Z,9.95
2023-04-12T13:11:01.709Z,9.94
2023-04-12T13:13:28.218Z,9.87
2023-04-12T13:15:54.807Z,9.84
2023-04-12T13:18:21.549Z,9.85
2023-04-12T13:20:47.999Z,9.88
2023-04-12T13:23:14.686Z,9.88
2023-04-12T13:25:41.178Z,9.92
2023-04-12T13:28:07.688Z,9.98
2023-04-12T13:30:34.148Z,10.09
2023-04-12T13:33:00.764Z,10.17
2023-04-12T13:35:27.443Z,10.16
2023-04-12T13:37:53.894Z,10.17
2023-04-12T13:40:20.390Z,10.21
2023-04-12T13:42:46.890Z,10.23
2023-04-12T13:45:16.310Z,10.27
2023-04-12T13:47:43.164Z,10.30
2023-04-12T13:50:10.123Z,10.39
2023-04-12T13:52:36.671Z,10.48
2023-04-12T13:55:09.812Z,10.56
2023-04-12T13:57:36.443Z,10.57
2023-04-12T14:00:03.093Z,10.50
2023-04-12T14:02:31.572Z,10.41
2023-04-12T14:04:58.475Z,10.46
2023-04-12T14:07:29.483Z,10.52
2023-04-12T14:09:57.710Z,10.56
2023-04-12T14:12:24.180Z,10.65
2023-04-12T14:14:50.740Z,10.70
2023-04-12T14:17:17.878Z,10.79
2023-04-12T14:19:44.492Z,11.01
2023-04-12T14:22:10.990Z,11.03
2023-04-12T14:24:37.784Z,11.08
2023-04-12T14:27:07.841Z,11.07
2023-04-12T14:29:34.347Z,11.09
2023-04-12T14:32:00.798Z,11.05
2023-04-12T14:34:27.335Z,11.08
2023-04-12T14:36:53.862Z,11.09
2023-04-12T14:39:20.367Z,11.06
2023-04-12T14:41:46.832Z,11.04
2023-04-12T14:44:13.341Z,11.00
2023-04-12T14:46:39.940Z,10.94
2023-04-12T14:49:07.008Z,10.87
2023-04-12T14:51:33.895Z,10.77
2023-04-12T14:54:02.629Z,10.73
2023-04-12T14:56:30.901Z,10.71
2023-04-12T14:58:58.116Z,10.73
2023-04-12T15:01:25.563Z,10.70
2023-04-12T15:03:52.881Z,10.74
2023-04-12T15:06:22.037Z,10.86
2023-04-12T15:08:54.222Z,10.89
2023-04-12T15:11:22.218Z,10.88
2023-04-12T15:13:49.827Z,10.91
2023-04-12T15:16:16.552Z,10.97
2023-04-12T15:18:43.090Z,10.97
2023-04-12T15:21:10.441Z,10.97
2023-04-12T15:23:38.060Z,10.92
2023-04-12T15:26:06.731Z,10.92
2023-04-12T15:28:33.397Z,10.93
2023-04-12T15:31:00.955Z,10.93
2023-04-12T15:33:27.656Z,10.96
2023-04-12T15:35:57.284Z,10.98
2023-04-12T15:38:24.900Z,10.94
2023-04-12T15:40:56.289Z,10.92
2023-04-12T15:43:23.689Z,10.96
2023-04-12T15:45:54.593Z,11.02
2023-04-12T15:48:23.013Z,11.04
2023-04-12T15:50:51.095Z,11.12
2023-04-12T15:53:21.032Z,11.11
2023-04-12T15:55:47.795Z,11.08
2023-04-12T15:58:14.806Z,11.04
2023-04-12T16:00:42.224Z,11.04
2023-04-12T16:03:09.274Z,11.08
2023-04-12T16:05:36.214Z,11.07
2023-04-12T16:08:02.941Z,11.03
2023-04-12T16:10:30.301Z,11.00
2023-04-12T16:12:57.161Z,11.01
2023-04-12T16:15:23.941Z,11.02
2023-04-12T16:17:55.359Z,11.00
2023-04-12T16:20:22.781Z,11.00
2023-04-12T16:22:54.187Z,10.97
2023-04-12T16:25:22.348Z,10.93
2023-04-12T16:27:48.905Z,10.91
2023-04-12T16:30:15.854Z,10.87
2023-04-12T16:32:48.009Z,10.84
2023-04-12T16:35:17.678Z,10.83
2023-04-12T16:37:46.251Z,10.83
2023-04-12T16:40:13.045Z,10.82
2023-04-12T16:42:44.340Z,10.79
2023-04-12T16:45:13.851Z,10.78
2023-04-12T16:47:40.928Z,10.75
2023-04-12T16:50:12.329Z,10.71
2023-04-12T16:52:39.862Z,10.66
2023-04-12T16:55:06.904Z,10.62
2023-04-12T16:57:33.416Z,10.58
2023-04-12T17:00:00.499Z,10.53
2023-04-12T17:02:27.431Z,10.51
2023-04-12T17:04:54.006Z,10.48
2023-04-12T17:07:20.523Z,10.47
2023-04-12T17:09:47.109Z,10.46
2023-04-12T17:12:13.669Z,10.44
2023-04-12T17:14:40.192Z,10.43
2023-04-12T17:17:07.042Z,10.43
2023-04-12T17:19:33.798Z,10.41
2023-04-12T17:22:00.774Z,10.42
2023-04-12T17:24:28.656Z,10.39
2023-04-12T17:26:55.478Z,10.39
2023-04-12T17:29:22.491Z,10.37
2023-04-12T17:31:54.255Z,10.34
2023-04-12T17:34:21.810Z,10.34
2023-04-12T17:36:49.257Z,10.32
2023-04-12T17:39:16.287Z,10.30
2023-04-12T17:41:42.902Z,10.28
2023-04-12T17:44:09.416Z,10.31
2023-04-12T17:46:36.139Z,10.30
2023-04-12T17:49:06.704Z,10.29
2023-04-12T17:51:33.600Z,10.27
2023-04-12T17:54:00.848Z,10.23
2023-04-12T17:56:27.869Z,10.23
2023-04-12T17:58:55.153Z,10.24
2023-04-12T18:01:22.121Z,10.21
2023-04-12T18:03:49.059Z,10.21
2023-04-12T18:06:18.224Z,10.24
2023-04-12T18:08:45.341Z,10.25
2023-04-12T18:11:13.008Z,10.25
2023-04-12T18:13:39.642Z,10.23
2023-04-12T18:16:07.072Z,10.24
2023-04-12T18:18:33.841Z,10.22
2023-04-12T18:21:03.984Z,10.19
2023-04-12T18:23:30.538Z,10.19
2023-04-12T18:25:57.164Z,10.13
2023-04-12T18:28:24.728Z,10.01
2023-04-12T18:30:51.224Z,9.79
2023-04-12T18:33:18.003Z,9.68
2023-04-12T18:35:44.860Z,9.60
2023-04-12T18:38:11.312Z,9.58
2023-04-12T18:40:38.712Z,9.56
2023-04-12T18:43:05.401Z,9.54
2023-04-12T18:45:32.276Z,9.47
2023-04-12T18:47:59.978Z,9.41
2023-04-12T18:50:26.797Z,9.41
2023-04-12T18:52:53.431Z,9.34
2023-04-12T18:55:20.519Z,9.34
2023-04-12T18:57:48.995Z,9.31
2023-04-12T19:00:16.553Z,9.29
2023-04-12T19:02:43.436Z,9.33
2023-04-12T19:05:11.119Z,9.27
2023-04-12T19:07:37.823Z,9.25
2023-04-12T19:10:04.938Z,9.22
2023-04-12T19:12:34.687Z,9.17
2023-04-12T19:15:01.715Z,9.17
2023-04-12T19:17:29.276Z,9.16
2023-04-12T19:19:56.488Z,9.12
2023-04-12T19:22:26.341Z,9.11
2023-04-12T19:24:53.693Z,9.07
2023-04-12T19:27:21.535Z,9.07
2023-04-12T19:29:48.203Z,9.11
2023-04-12T19:32:14.650Z,9.14
2023-04-12T19:34:41.733Z,9.20
2023-04-12T19:37:08.354Z,9.23
2023-04-12T19:39:34.858Z,9.21
2023-04-12T19:42:02.270Z,9.27
2023-04-12T19:44:29.262Z,9.22
2023-04-12T19:46:56.219Z,9.15
2023-04-12T19:49:23.864Z,9.02
2023-04-12T19:51:53.459Z,8.92
2023-04-12T19:54:23.579Z,8.80
2023-04-12T19:56:53.392Z,8.68
2023-04-12T19:59:20.998Z,8.61
2023-04-12T20:01:48.241Z,8.53
2023-04-12T20:04:16.627Z,8.48
2023-04-12T20:06:43.865Z,8.45
2023-04-12T20:09:13.799Z,8.35
2023-04-12T20:11:43.490Z,8.27
2023-04-12T20:14:13.329Z,8.21
2023-04-12T20:16:42.941Z,8.12
2023-04-12T20:19:09.991Z,8.10
2023-04-12T20:21:36.662Z,8.09
2023-04-12T20:24:04.061Z,8.09
2023-04-12T20:26:36.111Z,8.06
2023-04-12T20:29:04.790Z,8.03
2023-04-12T20:31:37.106Z,8.04
2023-04-12T20:34:04.072Z,8.04
2023-04-12T20:36:31.328Z,8.03
2023-04-12T20:38:58.003Z,8.01
2023-04-12T20:41:24.623Z,8.01
2023-04-12T20:43:51.637Z,7.99
2023-04-12T20:46:20.688Z,7.97
2023-04-12T20:48:49.912Z,7.99
2023-04-12T20:51:18.461Z,7.99
2023-04-12T20:53:47.204Z,7.99
2023-04-12T20:56:14.336Z,7.99
2023-04-12T20:58:41.910Z,7.96
2023-04-12T21:01:08.569Z,7.97
2023-04-12T21:03:38.365Z,7.92
2023-04-12T21:06:06.777Z,7.90
2023-04-12T21:08:35.882Z,7.83
2023-04-12T21:11:05.101Z,7.78
2023-04-12T21:13:31.599Z,7.68
2023-04-12T21:15:59.156Z,7.64
2023-04-12T21:18:25.715Z,7.56
2023-04-12T21:20:52.733Z,7.61
2023-04-12T21:23:20.169Z,7.57
2023-04-12T21:25:54.153Z,7.57
2023-04-12T21:28:23.690Z,7.55
2023-04-12T21:30:55.190Z,7.53
2023-04-12T21:33:26.238Z,7.59
2023-04-12T21:35:54.716Z,7.60
2023-04-12T21:38:22.559Z,7.60
2023-04-12T21:40:49.661Z,7.58
2023-04-12T21:43:18.201Z,7.61
2023-04-12T21:45:45.391Z,7.61
2023-04-12T21:48:14.985Z,7.55
2023-04-12T21:50:42.075Z,7.53
2023-04-12T21:53:08.997Z,7.53
2023-04-12T21:55:36.282Z,7.49
2023-04-12T21:58:04.844Z,7.48
2023-04-12T22:00:32.140Z,7.43
2023-04-12T22:02:59.445Z,7.38
2023-04-12T22:05:27.630Z,7.36
2023-04-12T22:07:54.192Z,7.30
2023-04-12T22:10:21.406Z,7.23
2023-04-12T22:12:53.532Z,7.18
2023-04-12T22:15:20.809Z,7.11
2023-04-12T22:17:47.635Z,7.06
2023-04-12T22:20:14.209Z,7.05
2023-04-12T22:22:41.243Z,7.08
2023-04-12T22:25:11.763Z,7.10
2023-04-12T22:27:39.353Z,7.09
2023-04-12T22:30:11.937Z,7.08
2023-04-12T22:32:39.425Z,7.03
2023-04-12T22:35:10.388Z,6.99
2023-04-12T22:37:44.304Z,6.91
2023-04-12T22:40:14.056Z,6.92
2023-04-12T22:42:54.114Z,6.94
2023-04-12T22:45:23.371Z,6.90
2023-04-12T22:47:49.838Z,6.86
2023-04-12T22:50:16.434Z,6.88
2023-04-12T22:52:43.002Z,6.89
2023-04-12T22:55:14.317Z,6.84
2023-04-12T22:57:41.124Z,6.81
2023-04-12T23:00:08.312Z,6.72
2023-04-12T23:02:34.900Z,6.65
2023-04-12T23:05:02.700Z,6.58
2023-04-12T23:07:30.116Z,6.51
2023-04-12T23:09:57.622Z,6.56
2023-04-12T23:12:24.492Z,6.55
2023-04-12T23:14:55.702Z,6.51
2023-04-12T23:17:22.790Z,6.52
2023-04-12T23:19:51.694Z,6.47
2023-04-12T23:22:55.303Z,6.46
2023-04-12T23:25:46.829Z,6.42
2023-04-12T23:28:14.996Z,6.41
2023-04-12T23:30:47.911Z,6.45
2023-04-12T23:33:20.629Z,6.58
2023-04-12T23:35:58.594Z,6.64
2023-04-12T23:38:32.718Z,6.65
2023-04-12T23:41:04.004Z,6.63
2023-04-12T23:43:32.544Z,6.67
2023-04-12T23:45:59.131Z,6.71
2023-04-12T23:48:25.570Z,6.76
2023-04-12T23:50:52.199Z,6.74
2023-04-12T23:53:19.449Z,6.78
2023-04-12T23:55:53.392Z,6.83
2023-04-12T23:58:20.753Z,6.93
